createdAt,value
2022-08-23T00:01:45.652Z,99.70
2022-08-23T00:04:18.205Z,99.70
2022-08-23T00:06:49.613Z,99.80
2022-08-23T00:09:20.851Z,99.70
2022-08-23T00:11:51.353Z,99.90
2022-08-23T00:14:23.080Z,99.90
2022-08-23T00:16:51.523Z,99.90
2022-08-23T00:19:22.671Z,99.90
2022-08-23T00:21:52.274Z,99.90
2022-08-23T00:24:22.631Z,99.90
2022-08-23T00:27:01.969Z,99.90
2022-08-23T00:29:36.707Z,99.90
2022-08-23T00:32:06.252Z,99.90
2022-08-23T00:34:34.556Z,99.90
2022-08-23T00:37:03.635Z,99.90
2022-08-23T00:39:33.308Z,99.90
2022-08-23T00:42:28.264Z,99.90
2022-08-23T00:45:15.716Z,99.90
2022-08-23T00:47:45.089Z,99.90
2022-08-23T00:50:24.528Z,99.90
2022-08-23T00:53:02.023Z,99.90
2022-08-23T00:55:32.339Z,99.90
2022-08-23T00:58:01.258Z,99.90
2022-08-23T01:00:30.667Z,99.90
2022-08-23T01:02:58.927Z,99.90
2022-08-23T01:05:31.660Z,99.90
2022-08-23T01:08:01.306Z,99.90
2022-08-23T01:10:36.600Z,99.90
2022-08-23T01:13:11.733Z,99.90
2022-08-23T01:15:45.198Z,99.90
2022-08-23T01:18:16.887Z,99.90
2022-08-23T01:20:52.664Z,99.90
2022-08-23T01:23:30.608Z,99.90
2022-08-23T01:25:59.768Z,99.90
2022-08-23T01:28:28.047Z,99.90
2022-08-23T01:30:57.113Z,99.90
2022-08-23T01:33:26.190Z,99.90
2022-08-23T01:35:56.925Z,99.90
2022-08-23T01:38:30.289Z,99.90
2022-08-23T01:41:01.308Z,99.90
2022-08-23T01:43:30.348Z,99.90
2022-08-23T01:45:58.564Z,99.90
2022-08-23T01:48:28.248Z,99.90
2022-08-23T01:50:57.562Z,99.90
2022-08-23T01:53:27.311Z,99.90
2022-08-23T01:55:55.633Z,99.90
2022-08-23T01:58:24.016Z,99.90
2022-08-23T02:00:52.414Z,99.90
2022-08-23T02:03:21.815Z,99.90
2022-08-23T02:08:41.009Z,99.90
2022-08-23T02:11:12.672Z,99.90
2022-08-23T02:13:41.589Z,99.90
2022-08-23T02:16:14.825Z,99.90
2022-08-23T02:18:43.551Z,99.90
2022-08-23T02:21:12.310Z,99.90
2022-08-23T02:23:40.623Z,99.90
2022-08-23T02:26:10.568Z,99.90
2022-08-23T02:28:39.487Z,99.90
2022-08-23T02:31:07.923Z,99.90
2022-08-23T02:33:40.172Z,99.90
2022-08-23T02:36:09.743Z,99.90
2022-08-23T02:38:38.003Z,99.90
2022-08-23T02:41:07.324Z,99.90
2022-08-23T02:43:40.925Z,99.90
2022-08-23T02:46:10.361Z,99.90
2022-08-23T02:48:39.705Z,99.90
2022-08-23T02:51:09.997Z,99.90
2022-08-23T02:53:39.708Z,99.90
2022-08-23T02:56:21.267Z,99.90
2022-08-23T02:58:54.488Z,99.90
2022-08-23T03:01:26.582Z,99.90
2022-08-23T03:03:58.553Z,99.90
2022-08-23T03:06:28.502Z,99.90
2022-08-23T03:08:57.583Z,99.90
2022-08-23T03:11:26.541Z,99.90
2022-08-23T03:13:57.501Z,99.90
2022-08-23T03:16:26.300Z,99.90
2022-08-23T03:18:55.128Z,99.90
2022-08-23T03:21:23.590Z,99.90
2022-08-23T03:23:53.821Z,99.90
2022-08-23T03:26:22.926Z,99.90
2022-08-23T03:28:51.790Z,99.90
2022-08-23T03:31:22.892Z,99.90
2022-08-23T03:34:13.223Z,99.90
2022-08-23T03:36:41.925Z,99.90
2022-08-23T03:39:10.804Z,99.90
2022-08-23T03:41:39.159Z,99.90
2022-08-23T03:44:08.650Z,99.90
2022-08-23T03:46:42.620Z,99.90
2022-08-23T03:49:11.462Z,99.90
2022-08-23T03:51:51.910Z,99.90
2022-08-23T03:54:20.299Z,99.90
2022-08-23T03:56:56.123Z,99.90
2022-08-23T03:59:25.501Z,99.90
2022-08-23T04:01:55.213Z,99.90
2022-08-23T04:04:23.947Z,99.90
2022-08-23T04:07:12.119Z,99.90
2022-08-23T04:09:40.535Z,99.90
2022-08-23T04:12:12.049Z,99.90
2022-08-23T04:14:46.792Z,99.90
2022-08-23T04:17:19.073Z,99.90
2022-08-23T04:19:47.519Z,99.90
2022-08-23T04:22:17.884Z,99.90
2022-08-23T04:24:47.183Z,99.90
2022-08-23T04:27:15.571Z,99.90
2022-08-23T04:29:45.223Z,99.90
2022-08-23T04:32:14.717Z,99.90
2022-08-23T04:34:57.657Z,99.90
2022-08-23T04:37:25.986Z,99.90
2022-08-23T04:40:11.772Z,99.90
2022-08-23T04:42:43.586Z,99.90
2022-08-23T04:45:14.192Z,99.90
2022-08-23T04:47:46.180Z,99.90
2022-08-23T04:50:15.812Z,99.90
2022-08-23T04:53:13.175Z,99.90
2022-08-23T04:55:57.992Z,99.90
2022-08-23T04:58:27.398Z,99.90
2022-08-23T05:00:56.670Z,99.90
2022-08-23T05:03:29.744Z,99.90
2022-08-23T05:06:01.207Z,99.90
2022-08-23T05:08:36.806Z,99.90
2022-08-23T05:11:08.327Z,99.90
2022-08-23T05:13:38.937Z,99.90
2022-08-23T05:16:10.164Z,99.90
2022-08-23T05:18:47.181Z,99.90
2022-08-23T05:21:19.415Z,99.90
2022-08-23T05:23:50.917Z,99.90
2022-08-23T05:26:25.935Z,99.90
2022-08-23T05:28:54.211Z,99.90
2022-08-23T05:31:30.478Z,99.90
2022-08-23T05:34:01.211Z,99.90
2022-08-23T05:36:56.034Z,99.90
2022-08-23T05:39:40.074Z,99.90
2022-08-23T05:42:11.959Z,99.90
2022-08-23T05:44:40.670Z,99.90
2022-08-23T05:47:15.081Z,99.90
2022-08-23T05:49:55.572Z,99.90
2022-08-23T05:52:26.184Z,99.90
2022-08-23T05:54:54.497Z,99.90
2022-08-23T05:57:45.595Z,99.90
2022-08-23T06:00:15.212Z,99.90
2022-08-23T06:02:53.053Z,99.90
2022-08-23T06:05:22.740Z,99.90
2022-08-23T06:07:53.297Z,99.90
2022-08-23T06:10:24.384Z,99.90
2022-08-23T06:13:04.101Z,99.90
2022-08-23T06:15:32.627Z,99.90
2022-08-23T06:18:01.268Z,99.90
2022-08-23T06:20:30.338Z,99.90
2022-08-23T06:23:02.304Z,99.80
2022-08-23T06:25:32.206Z,99.70
2022-08-23T06:28:09.585Z,99.80
2022-08-23T06:30:40.217Z,99.40
2022-08-23T06:33:34.131Z,99.30
2022-08-23T06:36:21.103Z,98.80
2022-08-23T06:39:12.566Z,98.60
2022-08-23T06:42:37.935Z,98.70
2022-08-23T06:45:07.753Z,99.20
2022-08-23T06:47:43.350Z,98.90
2022-08-23T06:50:11.980Z,98.60
2022-08-23T06:52:58.699Z,98.40
2022-08-23T06:55:38.672Z,98.20
2022-08-23T06:58:23.394Z,98.10
2022-08-23T07:01:34.964Z,97.80
2022-08-23T07:04:10.267Z,97.40
2022-08-23T07:06:57.436Z,97.50
2022-08-23T07:09:27.094Z,97.80
2022-08-23T07:11:57.135Z,97.60
2022-08-23T07:14:26.153Z,97.30
2022-08-23T07:16:57.989Z,96.80
2022-08-23T07:19:30.040Z,96.50
2022-08-23T07:21:58.985Z,96.60
2022-08-23T07:24:33.001Z,95.90
2022-08-23T07:27:08.675Z,95.10
2022-08-23T07:29:44.326Z,95.00
2022-08-23T07:32:12.670Z,95.10
2022-08-23T07:34:40.976Z,94.60
2022-08-23T07:37:15.284Z,93.70
2022-08-23T07:39:44.848Z,93.80
2022-08-23T07:42:23.306Z,93.40
2022-08-23T07:44:55.021Z,93.20
2022-08-23T07:47:28.211Z,92.20
2022-08-23T07:49:58.001Z,92.00
2022-08-23T07:52:27.051Z,92.00
2022-08-23T07:54:55.786Z,91.40
2022-08-23T07:57:48.370Z,91.40
2022-08-23T08:00:37.215Z,91.20
2022-08-23T08:03:25.416Z,90.90
2022-08-23T08:06:09.591Z,90.80
2022-08-23T08:08:37.972Z,91.10
2022-08-23T08:11:06.556Z,90.90
2022-08-23T08:13:38.583Z,90.90
2022-08-23T08:16:09.184Z,90.40
2022-08-23T08:18:41.588Z,90.20
2022-08-23T08:21:29.859Z,89.50
2022-08-23T08:24:12.988Z,88.70
2022-08-23T08:26:52.248Z,88.20
2022-08-23T08:29:23.104Z,88.80
2022-08-23T08:31:54.482Z,88.30
2022-08-23T08:34:23.902Z,87.90
2022-08-23T08:36:54.428Z,89.50
2022-08-23T08:39:28.206Z,88.40
2022-08-23T08:42:16.212Z,88.60
2022-08-23T08:44:53.555Z,87.40
2022-08-23T08:47:33.803Z,87.20
2022-08-23T08:50:09.840Z,87.80
2022-08-23T08:52:41.944Z,87.20
2022-08-23T08:55:23.325Z,86.30
2022-08-23T08:57:55.071Z,84.90
2022-08-23T09:00:28.629Z,84.90
2022-08-23T09:02:59.306Z,82.60
2022-08-23T09:05:34.351Z,84.00
2022-08-23T09:08:16.944Z,83.40
2022-08-23T09:10:53.316Z,82.90
2022-08-23T09:13:46.319Z,84.30
2022-08-23T09:16:30.932Z,82.90
2022-08-23T09:19:02.624Z,82.10
2022-08-23T09:21:41.816Z,82.00
2022-08-23T09:24:10.799Z,82.90
2022-08-23T09:27:06.299Z,81.20
2022-08-23T09:29:36.935Z,81.90
2022-08-23T09:32:17.912Z,83.00
2022-08-23T09:34:46.143Z,83.20
2022-08-23T09:37:19.818Z,83.10
2022-08-23T09:39:52.000Z,80.80
2022-08-23T09:42:30.935Z,80.50
2022-08-23T09:45:00.409Z,80.40
2022-08-23T09:47:35.002Z,80.80
2022-08-23T09:50:17.357Z,81.60
2022-08-23T09:52:50.224Z,81.60
2022-08-23T09:55:31.675Z,80.60
2022-08-23T09:58:01.883Z,80.20
2022-08-23T10:00:34.022Z,79.70
2022-08-23T10:03:24.177Z,79.80
2022-08-23T10:06:00.796Z,78.10
2022-08-23T10:08:35.950Z,78.40
2022-08-23T10:11:17.245Z,78.20
2022-08-23T10:13:46.132Z,77.70
2022-08-23T10:16:24.654Z,75.20
2022-08-23T10:19:14.668Z,75.40
2022-08-23T10:21:52.618Z,76.20
2022-08-23T10:24:31.211Z,77.50
2022-08-23T10:27:34.059Z,75.70
2022-08-23T10:30:08.323Z,76.20
2022-08-23T10:32:58.593Z,76.70
2022-08-23T10:35:33.681Z,76.30
2022-08-23T10:38:19.631Z,76.00
2022-08-23T10:40:59.918Z,76.70
2022-08-23T10:43:39.733Z,75.30
2022-08-23T10:46:08.955Z,74.60
2022-08-23T10:48:52.472Z,74.50
2022-08-23T10:51:31.519Z,74.90
2022-08-23T10:54:06.340Z,75.20
2022-08-23T10:56:37.092Z,74.60
2022-08-23T10:59:14.457Z,73.80
2022-08-23T11:01:51.892Z,74.60
2022-08-23T11:04:27.724Z,75.00
2022-08-23T11:07:20.155Z,75.70
2022-08-23T11:09:54.004Z,75.60
2022-08-23T11:12:29.101Z,75.20
2022-08-23T11:15:28.494Z,75.00
2022-08-23T11:18:04.051Z,73.80
2022-08-23T11:21:03.551Z,74.10
2022-08-23T11:23:55.462Z,75.10
2022-08-23T11:27:07.399Z,75.60
2022-08-23T11:29:43.556Z,74.80
2022-08-23T11:32:45.403Z,74.60
2022-08-23T11:35:40.538Z,75.60
2022-08-23T11:38:15.239Z,75.40
2022-08-23T11:41:17.099Z,73.10
2022-08-23T11:43:47.692Z,73.00
2022-08-23T11:46:34.563Z,71.60
2022-08-23T11:49:55.468Z,69.50
2022-08-23T11:52:47.312Z,70.80
2022-08-23T11:55:48.883Z,70.20
2022-08-23T11:58:24.352Z,70.70
2022-08-23T12:00:59.432Z,70.70
2022-08-23T12:03:34.070Z,69.00
2022-08-23T12:06:14.416Z,70.60
2022-08-23T12:08:55.856Z,70.60
2022-08-23T12:11:26.621Z,69.80
2022-08-23T12:14:00.601Z,71.20
2022-08-23T12:16:36.283Z,70.30
2022-08-23T12:19:19.099Z,72.00
2022-08-23T12:21:50.379Z,71.30
2022-08-23T12:24:29.798Z,71.90
2022-08-23T12:27:22.471Z,72.00
2022-08-23T12:30:01.399Z,71.40
2022-08-23T12:32:37.238Z,72.60
2022-08-23T12:35:28.644Z,69.80
2022-08-23T12:38:03.837Z,70.50
2022-08-23T12:40:36.341Z,71.50
2022-08-23T12:43:19.749Z,68.10
2022-08-23T12:45:54.878Z,68.80
2022-08-23T12:48:26.143Z,70.00
2022-08-23T12:50:56.787Z,68.60
2022-08-23T12:53:30.917Z,70.30
2022-08-23T12:56:03.554Z,69.60
2022-08-23T12:58:34.443Z,67.70
2022-08-23T13:01:07.088Z,67.00
2022-08-23T13:03:39.599Z,67.20
2022-08-23T13:06:11.150Z,66.60
2022-08-23T13:08:42.772Z,64.90
2022-08-23T13:11:13.263Z,65.60
2022-08-23T13:13:44.197Z,66.10
2022-08-23T13:16:42.345Z,69.60
2022-08-23T13:19:19.180Z,68.70
2022-08-23T13:21:47.561Z,69.60
2022-08-23T13:24:38.292Z,71.10
2022-08-23T13:27:36.462Z,70.40
2022-08-23T13:30:23.158Z,69.80
2022-08-23T13:32:55.241Z,69.60
2022-08-23T13:35:34.036Z,70.30
2022-08-23T13:38:19.919Z,71.20
2022-08-23T13:40:56.094Z,69.70
2022-08-23T13:43:30.191Z,67.80
2022-08-23T13:46:01.361Z,67.60
2022-08-23T13:48:34.766Z,67.70
2022-08-23T13:51:20.588Z,68.00
2022-08-23T13:53:48.988Z,67.40
2022-08-23T13:56:17.635Z,65.70
2022-08-23T13:58:56.385Z,65.60
2022-08-23T14:01:27.084Z,66.30
2022-08-23T14:03:56.994Z,65.60
2022-08-23T14:06:25.538Z,65.20
2022-08-23T14:08:53.832Z,66.90
2022-08-23T14:11:22.137Z,65.50
2022-08-23T14:13:51.045Z,64.70
2022-08-23T14:16:33.205Z,64.50
2022-08-23T14:20:31.419Z,63.80
2022-08-23T14:21:53.875Z,64.30
2022-08-23T14:24:22.299Z,64.70
2022-08-23T14:26:52.549Z,65.00
2022-08-23T14:29:22.521Z,64.30
2022-08-23T14:31:51.823Z,64.20
2022-08-23T14:34:21.712Z,65.10
2022-08-23T14:39:39.867Z,65.60
2022-08-23T14:42:08.417Z,64.80
2022-08-23T14:44:36.663Z,65.30
2022-08-23T14:47:05.997Z,65.50
2022-08-23T14:49:36.254Z,64.10
2022-08-23T14:52:05.368Z,63.60
2022-08-23T14:54:34.416Z,64.30
2022-08-23T14:57:02.743Z,63.00
2022-08-23T14:59:31.015Z,62.80
2022-08-23T15:02:00.863Z,63.60
2022-08-23T15:04:34.110Z,63.00
2022-08-23T15:07:17.839Z,64.00
2022-08-23T15:09:47.330Z,64.20
2022-08-23T15:15:04.816Z,64.20
2022-08-23T15:17:36.063Z,66.50
2022-08-23T15:20:06.847Z,65.90
2022-08-23T15:22:39.940Z,64.70
2022-08-23T15:25:14.058Z,63.90
2022-08-23T15:27:45.557Z,63.20
2022-08-23T15:30:15.711Z,63.60
2022-08-23T15:32:53.472Z,63.10
2022-08-23T15:35:26.003Z,63.30
2022-08-23T15:37:57.214Z,65.10
2022-08-23T15:40:26.285Z,64.50
2022-08-23T15:42:54.581Z,64.00
2022-08-23T15:45:22.852Z,63.00
2022-08-23T15:47:53.447Z,63.50
2022-08-23T15:50:24.284Z,64.80
2022-08-23T15:52:52.606Z,65.40
2022-08-23T15:55:22.875Z,65.10
2022-08-23T15:57:53.403Z,64.60
2022-08-23T16:00:24.169Z,65.10
2022-08-23T16:03:19.023Z,64.90
2022-08-23T16:05:43.168Z,65.70
2022-08-23T16:08:18.437Z,66.80
2022-08-23T16:10:48.042Z,65.50
2022-08-23T16:13:16.292Z,64.40
2022-08-23T16:15:44.960Z,64.30
2022-08-23T16:18:13.295Z,64.50
2022-08-23T16:20:42.830Z,64.00
2022-08-23T16:23:11.653Z,64.20
2022-08-23T16:25:40.079Z,64.40
2022-08-23T16:28:11.261Z,63.80
2022-08-23T16:30:39.618Z,63.20
2022-08-23T16:33:07.813Z,63.50
2022-08-23T16:35:36.167Z,63.90
2022-08-23T16:38:04.911Z,63.70
2022-08-23T16:40:33.209Z,64.90
2022-08-23T16:43:01.734Z,66.50
2022-08-23T16:45:31.591Z,65.60
2022-08-23T16:48:01.119Z,65.10
2022-08-23T16:50:32.640Z,65.10
2022-08-23T16:53:06.403Z,66.70
2022-08-23T16:55:35.588Z,67.00
2022-08-23T16:58:04.020Z,65.40
2022-08-23T17:00:33.720Z,65.40
2022-08-23T17:03:02.417Z,65.30
2022-08-23T17:05:30.995Z,66.50
2022-08-23T17:08:00.041Z,66.40
2022-08-23T17:10:29.564Z,68.00
2022-08-23T17:12:59.116Z,68.50
2022-08-23T17:15:30.265Z,68.60
2022-08-23T17:18:00.820Z,67.90
2022-08-23T17:20:31.680Z,67.30
2022-08-23T17:23:00.099Z,67.90
2022-08-23T17:25:29.436Z,67.60
2022-08-23T17:27:58.795Z,67.60
2022-08-23T17:30:28.516Z,68.00
2022-08-23T17:32:57.600Z,68.20
2022-08-23T17:35:33.891Z,68.80
2022-08-23T17:38:03.303Z,69.30
2022-08-23T17:40:35.353Z,69.20
2022-08-23T17:43:04.967Z,69.70
2022-08-23T17:45:39.095Z,69.50
2022-08-23T17:48:07.363Z,69.60
2022-08-23T17:50:37.998Z,70.20
2022-08-23T17:53:07.271Z,70.70
2022-08-23T17:55:37.107Z,70.30
2022-08-23T17:58:06.243Z,70.30
2022-08-23T18:00:36.062Z,70.70
2022-08-23T18:03:04.867Z,71.20
2022-08-23T18:05:38.368Z,71.40
2022-08-23T18:08:07.517Z,71.90
2022-08-23T18:10:36.835Z,72.30
2022-08-23T18:13:05.529Z,73.60
2022-08-23T18:15:33.948Z,75.10
2022-08-23T18:18:02.363Z,75.80
2022-08-23T18:20:31.408Z,76.70
2022-08-23T18:23:02.170Z,77.00
2022-08-23T18:25:30.861Z,77.70
2022-08-23T18:28:07.300Z,77.20
2022-08-23T18:30:36.469Z,78.40
2022-08-23T18:33:07.368Z,78.80
2022-08-23T18:35:41.043Z,79.30
2022-08-23T18:38:12.430Z,79.80
2022-08-23T18:40:46.199Z,80.20
2022-08-23T18:43:16.874Z,80.60
2022-08-23T18:45:46.261Z,81.00
2022-08-23T18:48:14.660Z,81.00
2022-08-23T18:50:43.455Z,81.20
2022-08-23T18:53:14.290Z,81.50
2022-08-23T18:55:43.103Z,81.80
2022-08-23T18:58:11.600Z,82.60
2022-08-23T19:00:41.680Z,83.30
2022-08-23T19:03:11.002Z,83.90
2022-08-23T19:05:42.393Z,84.20
2022-08-23T19:08:13.551Z,84.90
2022-08-23T19:10:43.080Z,85.50
2022-08-23T19:13:12.471Z,86.20
2022-08-23T19:15:42.273Z,86.50
2022-08-23T19:18:10.955Z,87.00
2022-08-23T19:20:39.751Z,87.20
2022-08-23T19:23:08.021Z,87.70
2022-08-23T19:25:38.581Z,88.50
2022-08-23T19:28:07.228Z,89.20
2022-08-23T19:30:35.632Z,89.60
2022-08-23T19:33:04.635Z,90.00
2022-08-23T19:35:33.298Z,90.10
2022-08-23T19:38:02.012Z,90.30
2022-08-23T19:40:30.452Z,90.50
2022-08-23T19:43:00.421Z,90.80
2022-08-23T19:45:32.113Z,91.00
2022-08-23T19:48:02.761Z,91.20
2022-08-23T19:50:31.236Z,91.30
2022-08-23T19:52:59.971Z,91.40
2022-08-23T19:55:29.109Z,91.20
2022-08-23T19:57:59.547Z,91.20
2022-08-23T20:00:30.305Z,91.20
2022-08-23T20:02:58.689Z,91.60
2022-08-23T20:05:27.159Z,91.80
2022-08-23T20:07:55.502Z,92.00
2022-08-23T20:10:24.128Z,92.00
2022-08-23T20:12:52.624Z,92.10
2022-08-23T20:15:22.504Z,92.10
2022-08-23T20:17:50.706Z,92.30
2022-08-23T20:20:19.027Z,92.60
2022-08-23T20:23:01.382Z,92.60
2022-08-23T20:25:30.642Z,92.80
2022-08-23T20:27:59.304Z,92.90
2022-08-23T20:30:28.927Z,93.50
2022-08-23T20:32:57.238Z,93.40
2022-08-23T20:35:25.650Z,93.70
2022-08-23T20:37:53.957Z,93.70
2022-08-23T20:40:25.773Z,93.80
2022-08-23T20:42:54.152Z,93.90
2022-08-23T20:45:22.487Z,94.00
2022-08-23T20:47:52.056Z,94.00
2022-08-23T20:50:20.533Z,93.90
2022-08-23T20:52:51.858Z,94.60
2022-08-23T20:55:20.831Z,94.50
2022-08-23T20:57:49.364Z,94.60
2022-08-23T21:00:18.118Z,95.00
2022-08-23T21:02:46.385Z,95.10
2022-08-23T21:05:16.023Z,95.40
2022-08-23T21:07:44.257Z,95.50
2022-08-23T21:10:12.946Z,95.60
2022-08-23T21:12:41.207Z,95.60
2022-08-23T21:15:11.200Z,96.00
2022-08-23T21:17:39.579Z,95.90
2022-08-23T21:20:08.667Z,95.90
2022-08-23T21:22:38.585Z,96.20
2022-08-23T21:25:07.780Z,96.30
2022-08-23T21:27:36.239Z,96.30
2022-08-23T21:30:05.359Z,96.50
2022-08-23T21:32:33.655Z,96.40
2022-08-23T21:35:02.098Z,96.60
2022-08-23T21:37:31.132Z,96.70
2022-08-23T21:40:01.392Z,96.90
2022-08-23T21:42:30.545Z,97.00
2022-08-23T21:44:58.875Z,97.30
2022-08-23T21:47:27.070Z,97.30
2022-08-23T21:49:55.383Z,97.40
2022-08-23T21:52:23.627Z,97.60
2022-08-23T21:54:52.108Z,97.50
2022-08-23T21:57:21.679Z,97.40
2022-08-23T21:59:50.101Z,97.70
2022-08-23T22:02:19.200Z,98.00
2022-08-23T22:04:48.272Z,97.90
2022-08-23T22:07:16.535Z,98.10
2022-08-23T22:09:44.754Z,98.20
2022-08-23T22:12:13.103Z,98.20
2022-08-23T22:14:42.644Z,98.30
2022-08-23T22:17:11.015Z,98.20
2022-08-23T22:19:39.374Z,98.30
2022-08-23T22:22:07.634Z,98.20
2022-08-23T22:24:35.819Z,98.20
2022-08-23T22:27:04.214Z,98.40
2022-08-23T22:29:32.477Z,98.60
2022-08-23T22:32:02.716Z,98.60
2022-08-23T22:34:31.069Z,98.80
2022-08-23T22:36:59.361Z,98.90
2022-08-23T22:39:27.700Z,99.00
2022-08-23T22:41:56.105Z,98.90
2022-08-23T22:44:24.316Z,99.20
2022-08-23T22:46:52.711Z,99.30
2022-08-23T22:49:22.380Z,99.30
2022-08-23T22:51:55.272Z,99.50
2022-08-23T22:54:24.675Z,99.50
2022-08-23T22:56:54.623Z,99.70
2022-08-23T22:59:32.926Z,99.90
2022-08-23T23:02:03.371Z,99.50
2022-08-23T23:04:34.632Z,99.80
2022-08-23T23:07:03.272Z,99.90
2022-08-23T23:09:31.615Z,99.90
2022-08-23T23:12:00.056Z,99.90
2022-08-23T23:14:28.354Z,99.90
2022-08-23T23:16:56.608Z,99.90
2022-08-23T23:19:42.872Z,99.90
2022-08-23T23:22:15.475Z,99.90
2022-08-23T23:24:43.734Z,99.90
2022-08-23T23:27:12.045Z,99.90
2022-08-23T23:29:40.540Z,99.90
2022-08-23T23:32:08.852Z,99.90
2022-08-23T23:34:37.957Z,99.90
2022-08-23T23:37:06.719Z,99.90
2022-08-23T23:39:36.296Z,99.90
2022-08-23T23:42:05.372Z,99.90
2022-08-23T23:44:33.778Z,99.90
2022-08-23T23:47:02.539Z,99.90
2022-08-23T23:49:33.200Z,99.90
2022-08-23T23:52:05.147Z,99.90
2022-08-23T23:54:35.451Z,99.90
2022-08-23T23:57:06.831Z,99.90
2022-08-23T23:59:35.591Z,99.90
